Time;durP1;ratioP1;P1;durP2;ratioP2;P2;SDS_P1;SDS_P2;PMS_P1;PMS_P2;Temp;Humidity;BMP_temperature;BMP_pressure;BME280_temperature;BME280_humidity;BME280_pressure;Samples;Min_cycle;Max_cycle;Signal;HPM_P1;HPM_P2
2023/08/27 00:01:02;;;;;;;5.43;4.60;;;;;;;;;;5074399;28;20972;-65
2023/08/27 00:03:31;;;;;;;4.77;4.37;;;;;;;;;;5074587;28;20588;-65
2023/08/27 00:05:58;;;;;;;5.30;4.27;;;;;;;;;;5074674;28;20961;-65
2023/08/27 00:08:25;;;;;;;4.53;4.13;;;;;;;;;;5074829;28;20461;-65
2023/08/27 00:10:57;;;;;;;5.23;4.27;;;;;;;;;;5073471;28;20530;-65
2023/08/27 00:13:25;;;;;;;6.90;4.87;;;;;;;;;;5074610;28;20463;-65
2023/08/27 00:15:52;;;;;;;4.80;4.43;;;;;;;;;;5074571;28;20436;-66
2023/08/27 00:18:19;;;;;;;8.43;4.57;;;;;;;;;;5074075;28;20444;-66
2023/08/27 00:20:49;;;;;;;4.63;4.23;;;;;;;;;;5074895;28;20473;-66
2023/08/27 00:23:16;;;;;;;4.93;4.53;;;;;;;;;;5073897;28;21034;-66
2023/08/27 00:25:44;;;;;;;5.80;5.03;;;;;;;;;;5074405;28;20475;-66
2023/08/27 00:28:13;;;;;;;4.80;4.30;;;;;;;;;;5074226;28;20441;-66
2023/08/27 00:30:40;;;;;;;5.00;4.60;;;;;;;;;;5073986;28;20870;-66
2023/08/27 00:33:07;;;;;;;3.90;3.60;;;;;;;;;;5074104;28;20646;-66
2023/08/27 00:35:34;;;;;;;4.53;3.97;;;;;;;;;;5074613;28;20522;-65
2023/08/27 00:38:03;;;;;;;4.50;4.10;;;;;;;;;;5073926;28;20552;-65
2023/08/27 00:40:30;;;;;;;4.80;3.77;;;;;;;;;;5074032;28;20524;-66
2023/08/27 00:42:58;;;;;;;7.43;4.07;;;;;;;;;;5074058;28;20514;-66
2023/08/27 00:45:25;;;;;;;5.30;4.10;;;;;;;;;;5073588;28;20447;-65
2023/08/27 00:47:52;;;;;;;4.37;3.93;;;;;;;;;;5073480;28;20953;-66
2023/08/27 00:50:20;;;;;;;4.40;4.10;;;;;;;;;;5073704;28;20443;-66
2023/08/27 00:52:47;;;;;;;3.87;3.40;;;;;;;;;;5073512;28;20883;-65
2023/08/27 00:55:16;;;;;;;4.37;3.97;;;;;;;;;;5073865;28;20961;-66
2023/08/27 00:57:43;;;;;;;4.27;3.87;;;;;;;;;;5073400;28;20529;-65
2023/08/27 01:00:11;;;;;;;6.17;3.40;;;;;;;;;;5073358;28;20445;-65
2023/08/27 01:02:39;;;;;;;4.17;3.50;;;;;;;;;;5073472;28;20488;-65
2023/08/27 01:05:07;;;;;;;3.63;3.33;;;;;;;;;;5073136;28;20439;-65
2023/08/27 01:07:41;;;;;;;5.00;4.03;;;;;;;;;;5073113;28;20442;-65
2023/08/27 01:10:13;;;;;;;4.20;3.80;;;;;;;;;;5073485;28;20975;-65
2023/08/27 01:12:44;;;;;;;7.90;3.97;;;;;;;;;;5073730;28;20434;-66
2023/08/27 01:15:13;;;;;;;3.57;3.27;;;;;;;;;;5073494;28;20518;-65
2023/08/27 01:17:41;;;;;;;3.60;3.30;;;;;;;;;;5073085;28;20446;-65
2023/08/27 01:20:09;;;;;;;3.77;3.43;;;;;;;;;;5072876;28;20454;-65
2023/08/27 01:22:38;;;;;;;3.50;3.20;;;;;;;;;;5072660;28;20863;-65
2023/08/27 01:25:06;;;;;;;3.20;3.00;;;;;;;;;;5073215;28;20528;-65
2023/08/27 01:27:38;;;;;;;3.90;3.50;;;;;;;;;;5073227;28;20458;-65
2023/08/27 01:30:11;;;;;;;3.73;3.43;;;;;;;;;;5072909;28;20440;-65
2023/08/27 01:32:40;;;;;;;4.70;3.63;;;;;;;;;;5073005;28;20946;-65
2023/08/27 01:35:08;;;;;;;3.83;3.53;;;;;;;;;;5072995;28;20451;-66
2023/08/27 01:37:35;;;;;;;3.90;3.60;;;;;;;;;;5073347;28;20863;-65
2023/08/27 01:40:05;;;;;;;5.20;3.63;;;;;;;;;;5072946;28;20444;-65
2023/08/27 01:42:33;;;;;;;4.50;3.80;;;;;;;;;;5073119;28;20432;-65
2023/08/27 01:45:00;;;;;;;6.63;4.07;;;;;;;;;;5072556;28;20924;-65
2023/08/27 01:47:27;;;;;;;6.70;4.97;;;;;;;;;;5072995;28;20533;-65
2023/08/27 01:49:54;;;;;;;5.20;4.70;;;;;;;;;;5072913;28;20473;-64
2023/08/27 01:52:22;;;;;;;5.10;4.53;;;;;;;;;;5073057;28;20862;-65
2023/08/27 01:54:49;;;;;;;6.63;5.90;;;;;;;;;;5072482;28;20470;-65
2023/08/27 01:57:17;;;;;;;5.37;4.80;;;;;;;;;;5072981;28;20526;-65
2023/08/27 01:59:45;;;;;;;4.77;4.33;;;;;;;;;;5072556;28;20799;-65
2023/08/27 02:02:12;;;;;;;5.10;4.70;;;;;;;;;;5072869;28;20441;-65
2023/08/27 02:04:39;;;;;;;5.83;4.80;;;;;;;;;;5072804;28;20470;-65
2023/08/27 02:07:06;;;;;;;5.03;4.57;;;;;;;;;;5072591;28;20519;-65
2023/08/27 02:09:33;;;;;;;6.37;4.70;;;;;;;;;;5072787;28;20864;-65
2023/08/27 02:12:01;;;;;;;3.80;3.50;;;;;;;;;;5072524;28;20435;-66
2023/08/27 02:14:29;;;;;;;7.83;5.10;;;;;;;;;;5073072;28;20449;-65
2023/08/27 02:16:56;;;;;;;9.00;5.23;;;;;;;;;;5072427;28;20893;-68
2023/08/27 02:19:23;;;;;;;5.40;5.00;;;;;;;;;;5072685;28;20439;-66
2023/08/27 02:21:51;;;;;;;5.87;5.13;;;;;;;;;;5072331;28;20526;-66
2023/08/27 02:24:18;;;;;;;5.27;4.60;;;;;;;;;;5072663;28;20479;-66
2023/08/27 02:26:45;;;;;;;6.00;5.10;;;;;;;;;;5072588;28;20527;-66
2023/08/27 02:29:12;;;;;;;5.40;4.93;;;;;;;;;;5072342;28;20531;-66
2023/08/27 02:31:41;;;;;;;5.27;4.77;;;;;;;;;;5072149;28;20921;-66
2023/08/27 02:34:08;;;;;;;6.13;5.33;;;;;;;;;;5074849;28;20460;-66
2023/08/27 02:36:35;;;;;;;6.33;5.70;;;;;;;;;;5075997;28;21032;-66
2023/08/27 02:39:03;;;;;;;7.40;5.90;;;;;;;;;;5076365;28;20517;-66
2023/08/27 02:41:30;;;;;;;5.60;5.20;;;;;;;;;;5076260;28;20451;-66
2023/08/27 02:43:57;;;;;;;6.70;6.00;;;;;;;;;;5076220;28;20888;-66
2023/08/27 02:46:24;;;;;;;7.00;5.70;;;;;;;;;;5076186;28;20533;-66
2023/08/27 02:48:53;;;;;;;6.03;5.53;;;;;;;;;;5076307;28;20537;-66
2023/08/27 02:51:20;;;;;;;5.77;5.17;;;;;;;;;;5075825;28;20929;-66
2023/08/27 02:53:50;;;;;;;7.13;4.83;;;;;;;;;;5076244;28;20788;-65
2023/08/27 02:56:18;;;;;;;6.17;4.90;;;;;;;;;;5076120;28;20851;-65
2023/08/27 02:58:45;;;;;;;6.43;5.87;;;;;;;;;;5076121;28;20448;-65
2023/08/27 03:01:18;;;;;;;7.33;6.60;;;;;;;;;;5075860;28;20527;-66
2023/08/27 03:03:47;;;;;;;7.10;6.30;;;;;;;;;;5075560;28;20460;-66
2023/08/27 03:06:15;;;;;;;6.30;5.70;;;;;;;;;;5075439;28;20471;-66
2023/08/27 03:08:43;;;;;;;5.87;5.40;;;;;;;;;;5075511;28;20917;-66
2023/08/27 03:11:10;;;;;;;10.80;5.80;;;;;;;;;;5075359;28;20483;-65
2023/08/27 03:13:37;;;;;;;6.43;5.83;;;;;;;;;;5076034;28;20780;-65
2023/08/27 03:16:05;;;;;;;6.63;5.93;;;;;;;;;;5075617;28;20447;-64
2023/08/27 03:18:32;;;;;;;6.77;6.23;;;;;;;;;;5075709;28;20843;-65
2023/08/27 03:20:59;;;;;;;7.17;6.47;;;;;;;;;;5075253;28;20952;-65
2023/08/27 03:23:30;;;;;;;7.27;6.30;;;;;;;;;;5075848;28;20490;-66
2023/08/27 03:25:58;;;;;;;8.57;6.27;;;;;;;;;;5075774;28;20772;-65
2023/08/27 03:28:25;;;;;;;11.93;8.70;;;;;;;;;;5075574;28;20434;-65
2023/08/27 03:30:52;;;;;;;9.40;6.63;;;;;;;;;;5078064;28;20537;-64
2023/08/27 03:33:19;;;;;;;7.37;6.67;;;;;;;;;;5094230;28;20441;-65
2023/08/27 03:35:52;;;;;;;7.50;6.87;;;;;;;;;;5094669;28;20852;-65
2023/08/27 03:38:19;;;;;;;7.80;7.20;;;;;;;;;;5094617;28;20416;-65
2023/08/27 03:40:49;;;;;;;7.60;6.90;;;;;;;;;;5094149;28;20530;-65
2023/08/27 03:43:17;;;;;;;7.87;7.17;;;;;;;;;;5094766;28;20974;-64
2023/08/27 03:45:44;;;;;;;8.67;7.90;;;;;;;;;;5094841;28;20429;-65
2023/08/27 03:48:11;;;;;;;10.83;7.27;;;;;;;;;;5094677;28;20442;-64
2023/08/27 03:50:38;;;;;;;8.17;7.37;;;;;;;;;;5094685;28;20537;-65
2023/08/27 03:53:06;;;;;;;8.67;7.87;;;;;;;;;;5094475;28;21026;-65
2023/08/27 03:55:39;;;;;;;8.73;7.20;;;;;;;;;;5095101;28;20439;-65
2023/08/27 03:58:08;;;;;;;10.47;7.43;;;;;;;;;;5094769;28;20431;-64
2023/08/27 04:00:36;;;;;;;8.50;7.70;;;;;;;;;;5094448;28;20529;-65
2023/08/27 04:03:04;;;;;;;9.50;8.57;;;;;;;;;;5094449;28;20989;-65
2023/08/27 04:05:32;;;;;;;7.27;6.57;;;;;;;;;;5094425;28;20500;-65
2023/08/27 04:07:59;;;;;;;10.33;8.07;;;;;;;;;;5094159;28;20474;-65
2023/08/27 04:10:26;;;;;;;8.90;8.13;;;;;;;;;;5094500;28;20810;-65
2023/08/27 04:12:54;;;;;;;9.30;8.30;;;;;;;;;;5094581;28;20442;-64
2023/08/27 04:15:23;;;;;;;8.80;7.63;;;;;;;;;;5094784;28;20437;-64
2023/08/27 04:17:50;;;;;;;8.50;7.70;;;;;;;;;;5094477;28;20533;-65
2023/08/27 04:20:17;;;;;;;8.97;8.10;;;;;;;;;;5094594;28;20533;-65
2023/08/27 04:22:44;;;;;;;13.37;9.37;;;;;;;;;;5094449;28;20446;-65
2023/08/27 04:25:16;;;;;;;10.20;9.10;;;;;;;;;;5094112;28;20983;-65
2023/08/27 04:27:44;;;;;;;10.80;9.27;;;;;;;;;;5093726;28;20791;-65
2023/08/27 04:30:12;;;;;;;9.47;8.23;;;;;;;;;;5094446;28;20892;-65
2023/08/27 04:32:40;;;;;;;12.90;8.50;;;;;;;;;;5093786;28;20449;-65
2023/08/27 04:35:08;;;;;;;10.17;9.17;;;;;;;;;;5094670;28;20551;-64
2023/08/27 04:37:35;;;;;;;10.33;8.30;;;;;;;;;;5094093;28;20449;-65
2023/08/27 04:40:03;;;;;;;9.00;7.77;;;;;;;;;;5094403;28;20453;-65
2023/08/27 04:42:30;;;;;;;11.63;7.97;;;;;;;;;;5093933;28;20450;-65
2023/08/27 04:44:57;;;;;;;7.90;7.20;;;;;;;;;;5094181;28;20850;-65
2023/08/27 04:47:25;;;;;;;9.37;8.50;;;;;;;;;;5093648;28;20438;-65
2023/08/27 04:49:53;;;;;;;10.63;8.03;;;;;;;;;;5094034;28;20470;-65
2023/08/27 04:52:21;;;;;;;8.80;7.90;;;;;;;;;;5093686;28;20869;-65
2023/08/27 04:54:48;;;;;;;9.00;8.10;;;;;;;;;;5093570;28;20487;-65
2023/08/27 04:57:15;;;;;;;7.93;7.13;;;;;;;;;;5093271;28;20532;-65
2023/08/27 04:59:42;;;;;;;8.20;7.40;;;;;;;;;;5093548;28;20432;-64
2023/08/27 05:02:09;;;;;;;10.20;7.20;;;;;;;;;;5093384;28;20517;-65
2023/08/27 05:04:36;;;;;;;8.10;7.30;;;;;;;;;;5093637;28;20569;-65
2023/08/27 05:07:05;;;;;;;7.27;6.67;;;;;;;;;;5093353;28;20474;-65
2023/08/27 05:09:32;;;;;;;11.27;7.93;;;;;;;;;;5093385;28;20534;-65
2023/08/27 05:11:59;;;;;;;13.10;7.93;;;;;;;;;;5093175;28;20929;-65
2023/08/27 05:14:26;;;;;;;14.03;8.90;;;;;;;;;;5093172;28;20789;-65
2023/08/27 05:16:54;;;;;;;9.53;7.77;;;;;;;;;;5093555;28;20570;-65
2023/08/27 05:19:21;;;;;;;8.17;7.20;;;;;;;;;;5093719;28;20536;-65
2023/08/27 05:21:48;;;;;;;8.00;7.30;;;;;;;;;;5093134;28;20653;-65
2023/08/27 05:24:17;;;;;;;9.47;7.20;;;;;;;;;;5092920;28;20474;-65
2023/08/27 05:26:44;;;;;;;8.67;7.40;;;;;;;;;;5092981;28;20529;-65
2023/08/27 05:29:11;;;;;;;9.00;7.07;;;;;;;;;;5092979;28;20453;-65
2023/08/27 05:31:39;;;;;;;8.57;7.70;;;;;;;;;;5092983;28;20446;-66
2023/08/27 05:34:06;;;;;;;7.67;6.87;;;;;;;;;;5092832;28;20444;-65
2023/08/27 05:36:33;;;;;;;7.77;7.10;;;;;;;;;;5093120;28;20438;-66
2023/08/27 05:39:00;;;;;;;8.03;6.03;;;;;;;;;;5092811;28;20813;-65
2023/08/27 05:41:29;;;;;;;13.03;7.53;;;;;;;;;;5093118;28;20481;-65
2023/08/27 05:43:56;;;;;;;8.53;7.70;;;;;;;;;;5092634;28;21017;-65
2023/08/27 05:46:23;;;;;;;8.13;7.43;;;;;;;;;;5092586;28;20806;-65
2023/08/27 05:48:51;;;;;;;10.10;7.70;;;;;;;;;;5092763;28;20526;-65
2023/08/27 05:51:18;;;;;;;8.13;7.20;;;;;;;;;;5092615;28;20473;-65
2023/08/27 05:53:45;;;;;;;7.97;7.27;;;;;;;;;;5092757;28;20887;-65
2023/08/27 05:56:12;;;;;;;6.83;6.10;;;;;;;;;;5092953;28;20528;-65
2023/08/27 05:58:41;;;;;;;5.97;5.47;;;;;;;;;;5092581;28;20451;-65
2023/08/27 06:01:08;;;;;;;6.93;5.80;;;;;;;;;;5093340;28;20445;-65
2023/08/27 06:03:35;;;;;;;7.57;6.77;;;;;;;;;;5093231;28;20870;-66
2023/08/27 06:06:03;;;;;;;7.10;6.20;;;;;;;;;;5092889;28;20480;-66
2023/08/27 06:08:30;;;;;;;6.20;5.63;;;;;;;;;;5095293;28;20551;-65
2023/08/27 06:10:57;;;;;;;7.53;6.30;;;;;;;;;;5097422;28;20520;-65
2023/08/27 06:13:24;;;;;;;8.80;6.13;;;;;;;;;;5097099;28;20442;-66
2023/08/27 06:15:53;;;;;;;5.80;5.00;;;;;;;;;;5097201;28;20459;-66
2023/08/27 06:18:20;;;;;;;5.80;5.30;;;;;;;;;;5096678;28;20457;-66
2023/08/27 06:20:47;;;;;;;6.90;5.80;;;;;;;;;;5097061;28;20538;-65
2023/08/27 06:23:15;;;;;;;9.67;5.80;;;;;;;;;;5096949;28;20477;-66
2023/08/27 06:25:42;;;;;;;5.53;5.07;;;;;;;;;;5097184;28;20485;-66
2023/08/27 06:28:09;;;;;;;7.87;5.73;;;;;;;;;;5096732;28;20521;-65
2023/08/27 06:30:41;;;;;;;8.80;5.87;;;;;;;;;;5096580;28;20934;-65
2023/08/27 06:33:10;;;;;;;6.90;6.17;;;;;;;;;;5096808;28;20480;-62
2023/08/27 06:35:37;;;;;;;6.87;6.27;;;;;;;;;;5096797;28;20451;-64
2023/08/27 06:38:05;;;;;;;7.40;6.80;;;;;;;;;;5096294;28;20440;-65
2023/08/27 06:40:33;;;;;;;7.33;6.63;;;;;;;;;;5096654;28;20437;-64
2023/08/27 06:43:00;;;;;;;8.53;6.53;;;;;;;;;;5096268;28;20493;-65
2023/08/27 06:45:27;;;;;;;7.43;6.73;;;;;;;;;;5096108;28;20481;-66
2023/08/27 06:47:55;;;;;;;8.50;7.67;;;;;;;;;;5096646;28;20826;-65
2023/08/27 06:50:24;;;;;;;8.10;7.30;;;;;;;;;;5096074;28;20438;-65
2023/08/27 06:52:51;;;;;;;8.63;7.73;;;;;;;;;;5095993;28;20447;-69
2023/08/27 06:55:18;;;;;;;8.83;7.93;;;;;;;;;;5096473;28;20480;-64
2023/08/27 06:57:46;;;;;;;11.10;8.10;;;;;;;;;;5096391;28;20474;-65
2023/08/27 07:00:13;;;;;;;8.60;7.50;;;;;;;;;;5096222;28;20470;-65
2023/08/27 07:02:40;;;;;;;8.53;7.73;;;;;;;;;;5096578;28;20533;-65
2023/08/27 07:05:09;;;;;;;8.43;7.27;;;;;;;;;;5095816;28;21051;-65
2023/08/27 07:07:38;;;;;;;8.23;7.53;;;;;;;;;;5096055;28;20449;-65
2023/08/27 07:10:06;;;;;;;8.50;7.80;;;;;;;;;;5095752;28;20517;-65
2023/08/27 07:12:33;;;;;;;8.40;7.27;;;;;;;;;;5096264;28;20875;-65
2023/08/27 07:15:00;;;;;;;7.20;6.53;;;;;;;;;;5095659;28;20450;-65
2023/08/27 07:17:27;;;;;;;7.40;6.70;;;;;;;;;;5095721;28;20529;-65
2023/08/27 07:19:55;;;;;;;6.27;5.67;;;;;;;;;;5094971;28;20451;-65
2023/08/27 07:22:22;;;;;;;7.37;6.00;;;;;;;;;;5096118;28;21000;-65
2023/08/27 07:24:50;;;;;;;6.90;5.83;;;;;;;;;;5095756;28;20476;-65
2023/08/27 07:27:18;;;;;;;6.67;5.03;;;;;;;;;;5096051;28;20533;-65
2023/08/27 07:29:45;;;;;;;6.20;5.00;;;;;;;;;;5096021;28;20525;-65
2023/08/27 07:32:12;;;;;;;6.47;4.80;;;;;;;;;;5095741;28;20433;-64
2023/08/27 07:34:39;;;;;;;4.47;4.17;;;;;;;;;;5095408;28;20443;-65
2023/08/27 07:37:06;;;;;;;5.07;4.40;;;;;;;;;;5094154;28;20529;-65
2023/08/27 07:39:34;;;;;;;6.60;3.97;;;;;;;;;;5095473;28;20468;-64
2023/08/27 07:42:02;;;;;;;7.80;6.10;;;;;;;;;;5094846;28;20525;-65
2023/08/27 07:44:30;;;;;;;5.60;4.50;;;;;;;;;;5095119;28;20436;-65
2023/08/27 07:46:57;;;;;;;5.50;3.87;;;;;;;;;;5095207;28;20506;-64
2023/08/27 07:49:24;;;;;;;4.80;4.40;;;;;;;;;;5094947;28;20473;-64
2023/08/27 07:51:53;;;;;;;7.67;4.60;;;;;;;;;;5095440;28;20471;-64
2023/08/27 07:54:20;;;;;;;5.07;4.67;;;;;;;;;;5094633;28;20470;-64
2023/08/27 07:56:47;;;;;;;7.20;4.50;;;;;;;;;;5094679;28;20441;-65
2023/08/27 07:59:16;;;;;;;5.80;5.00;;;;;;;;;;5080395;28;20529;-65
2023/08/27 08:01:43;;;;;;;6.13;4.37;;;;;;;;;;5074174;28;20531;-65
2023/08/27 08:04:10;;;;;;;5.77;5.23;;;;;;;;;;5074227;28;20436;-66
2023/08/27 08:06:37;;;;;;;5.30;4.80;;;;;;;;;;5074247;28;20489;-65
2023/08/27 08:09:05;;;;;;;8.03;5.40;;;;;;;;;;5073942;28;20528;-66
2023/08/27 08:11:32;;;;;;;5.67;5.07;;;;;;;;;;5073907;28;20525;-66
2023/08/27 08:13:59;;;;;;;5.13;4.73;;;;;;;;;;5074509;28;20776;-65
2023/08/27 08:16:28;;;;;;;7.53;5.27;;;;;;;;;;5073721;28;20925;-66
2023/08/27 08:18:55;;;;;;;8.07;5.00;;;;;;;;;;5073556;28;20523;-66
2023/08/27 08:21:22;;;;;;;3.20;2.90;;;;;;;;;;5073484;28;20440;-65
2023/08/27 08:23:49;;;;;;;4.20;3.20;;;;;;;;;;5073876;28;20481;-66
2023/08/27 08:26:17;;;;;;;3.93;2.93;;;;;;;;;;5073801;28;20472;-65
2023/08/27 08:28:44;;;;;;;8.10;3.70;;;;;;;;;;5073936;28;20437;-66
2023/08/27 08:31:11;;;;;;;3.87;2.97;;;;;;;;;;5072589;28;21017;-66
2023/08/27 08:33:40;;;;;;;3.97;3.53;;;;;;;;;;5073772;28;20468;-65
2023/08/27 08:36:07;;;;;;;4.57;3.30;;;;;;;;;;5073743;28;20484;-66
2023/08/27 08:38:34;;;;;;;4.30;3.17;;;;;;;;;;5091459;28;20478;-66
2023/08/27 08:41:03;;;;;;;3.77;3.50;;;;;;;;;;5093629;28;20441;-66
2023/08/27 08:43:34;;;;;;;4.37;3.97;;;;;;;;;;5093602;28;20467;-66
2023/08/27 08:46:04;;;;;;;4.03;3.60;;;;;;;;;;5094218;28;20503;-65
2023/08/27 08:48:33;;;;;;;4.33;3.90;;;;;;;;;;5094088;28;20421;-66
2023/08/27 08:51:03;;;;;;;3.93;3.53;;;;;;;;;;5093689;28;20457;-66
2023/08/27 08:53:32;;;;;;;3.50;3.20;;;;;;;;;;5093824;28;20543;-66
2023/08/27 08:56:02;;;;;;;3.97;3.67;;;;;;;;;;5093720;28;20542;-66
2023/08/27 08:58:32;;;;;;;3.53;3.23;;;;;;;;;;5093778;28;20453;-65
2023/08/27 09:00:59;;;;;;;4.10;3.47;;;;;;;;;;5093858;28;20763;-66
2023/08/27 09:03:28;;;;;;;3.73;3.40;;;;;;;;;;5093411;28;20489;-65
2023/08/27 09:05:55;;;;;;;3.90;3.20;;;;;;;;;;5093402;28;20518;-65
2023/08/27 09:08:24;;;;;;;5.40;4.53;;;;;;;;;;5093597;28;20536;-66
2023/08/27 09:10:52;;;;;;;3.63;3.33;;;;;;;;;;5093549;28;20446;-66
2023/08/27 09:13:20;;;;;;;5.00;3.30;;;;;;;;;;5093672;28;20465;-65
2023/08/27 09:15:48;;;;;;;4.33;3.50;;;;;;;;;;5093685;28;20444;-65
2023/08/27 09:18:15;;;;;;;4.60;3.40;;;;;;;;;;5093723;28;20446;-66
2023/08/27 09:20:42;;;;;;;2.83;2.63;;;;;;;;;;5093481;28;20528;-65
2023/08/27 09:23:11;;;;;;;5.50;3.47;;;;;;;;;;5093175;28;20457;-65
2023/08/27 09:25:40;;;;;;;4.90;3.57;;;;;;;;;;5093570;28;20510;-65
2023/08/27 09:28:07;;;;;;;4.20;3.50;;;;;;;;;;5093383;28;20473;-65
2023/08/27 09:30:35;;;;;;;3.83;3.13;;;;;;;;;;5093312;28;20492;-65
2023/08/27 09:33:03;;;;;;;3.73;3.43;;;;;;;;;;5093246;28;20462;-65
2023/08/27 09:35:40;;;;;;;5.17;3.87;;;;;;;;;;5092994;28;20532;-65
2023/08/27 09:38:07;;;;;;;5.90;3.90;;;;;;;;;;5092942;28;20529;-65
2023/08/27 09:40:34;;;;;;;4.03;3.73;;;;;;;;;;5092783;28;20942;-65
2023/08/27 09:43:07;;;;;;;5.37;3.80;;;;;;;;;;5092390;28;20945;-64
2023/08/27 09:45:35;;;;;;;4.60;4.20;;;;;;;;;;5092948;28;20511;-66
2023/08/27 09:48:03;;;;;;;4.63;4.00;;;;;;;;;;5093440;28;20516;-65
2023/08/27 09:50:31;;;;;;;5.23;4.70;;;;;;;;;;5093124;28;20439;-66
2023/08/27 09:53:09;;;;;;;6.13;4.53;;;;;;;;;;5092467;28;20591;-65
2023/08/27 09:55:37;;;;;;;4.80;4.30;;;;;;;;;;5093142;28;20449;-66
2023/08/27 09:58:04;;;;;;;5.80;5.20;;;;;;;;;;5092804;28;20616;-65
2023/08/27 10:00:34;;;;;;;5.80;4.80;;;;;;;;;;5092667;28;20445;-65
2023/08/27 10:03:01;;;;;;;5.30;4.87;;;;;;;;;;5092502;28;20962;-65
2023/08/27 10:05:29;;;;;;;24.23;13.50;;;;;;;;;;5092970;28;20481;-65
2023/08/27 10:07:57;;;;;;;8.03;5.90;;;;;;;;;;5092803;28;20439;-66
2023/08/27 10:10:24;;;;;;;5.53;4.80;;;;;;;;;;5093172;28;20875;-65
2023/08/27 10:12:52;;;;;;;7.57;6.50;;;;;;;;;;5092852;28;20873;-65
2023/08/27 10:15:20;;;;;;;7.30;6.60;;;;;;;;;;5092617;28;20477;-65
2023/08/27 10:17:48;;;;;;;7.63;6.00;;;;;;;;;;5092540;28;20945;-65
2023/08/27 10:20:16;;;;;;;6.87;6.20;;;;;;;;;;5092958;28;20858;-65
2023/08/27 10:22:44;;;;;;;6.17;5.67;;;;;;;;;;5092244;28;20481;-65
2023/08/27 10:25:11;;;;;;;7.30;5.93;;;;;;;;;;5092586;28;20449;-65
2023/08/27 10:27:39;;;;;;;6.60;5.97;;;;;;;;;;5092749;28;20531;-65
2023/08/27 10:30:07;;;;;;;7.00;6.10;;;;;;;;;;5092571;28;20469;-65
2023/08/27 10:32:34;;;;;;;8.50;7.33;;;;;;;;;;5092333;28;20440;-65
2023/08/27 10:35:05;;;;;;;7.43;6.87;;;;;;;;;;5092456;28;20469;-65
2023/08/27 10:37:33;;;;;;;7.10;6.50;;;;;;;;;;5092740;28;20439;-64
2023/08/27 10:40:08;;;;;;;7.60;6.97;;;;;;;;;;5092749;28;20442;-65
2023/08/27 10:42:36;;;;;;;6.83;6.23;;;;;;;;;;5092122;28;20429;-65
2023/08/27 10:45:13;;;;;;;8.80;6.50;;;;;;;;;;5092183;28;20521;-64
2023/08/27 10:47:40;;;;;;;7.93;7.33;;;;;;;;;;5092304;28;20477;-65
2023/08/27 10:50:10;;;;;;;6.93;6.33;;;;;;;;;;5092634;28;20526;-65
2023/08/27 10:52:51;;;;;;;6.90;6.40;;;;;;;;;;5092173;28;20435;-65
2023/08/27 10:55:21;;;;;;;7.57;6.67;;;;;;;;;;5094702;28;20430;-65
2023/08/27 10:57:48;;;;;;;7.80;7.20;;;;;;;;;;5096533;28;20441;-65
2023/08/27 11:00:16;;;;;;;7.63;6.90;;;;;;;;;;5096116;28;20525;-66
2023/08/27 11:02:57;;;;;;;7.20;6.50;;;;;;;;;;5095870;28;20444;-64
2023/08/27 11:05:29;;;;;;;7.30;6.80;;;;;;;;;;5096423;28;20445;-64
2023/08/27 11:07:59;;;;;;;7.70;6.90;;;;;;;;;;5096289;28;20419;-64
2023/08/27 11:10:34;;;;;;;8.27;7.47;;;;;;;;;;5096386;28;20510;-64
2023/08/27 11:13:02;;;;;;;9.67;6.20;;;;;;;;;;5095807;28;20987;-65
2023/08/27 11:15:31;;;;;;;7.60;6.90;;;;;;;;;;5095780;28;20442;-65
2023/08/27 11:17:59;;;;;;;7.67;7.07;;;;;;;;;;5096134;28;20436;-65
2023/08/27 11:20:28;;;;;;;8.73;7.37;;;;;;;;;;5095600;28;20451;-66
2023/08/27 11:22:57;;;;;;;7.50;6.77;;;;;;;;;;5095694;28;20530;-65
2023/08/27 11:25:26;;;;;;;7.17;6.33;;;;;;;;;;5095859;28;20446;-65
2023/08/27 11:27:54;;;;;;;10.50;7.60;;;;;;;;;;5095783;28;20448;-65
2023/08/27 11:30:24;;;;;;;8.27;7.47;;;;;;;;;;5095793;28;20446;-65
2023/08/27 11:32:51;;;;;;;8.00;7.20;;;;;;;;;;5095495;28;20529;-65
2023/08/27 11:35:23;;;;;;;8.27;7.57;;;;;;;;;;5096241;28;20530;-65
2023/08/27 11:37:50;;;;;;;9.50;7.30;;;;;;;;;;5096003;28;20434;-65
2023/08/27 11:40:19;;;;;;;9.53;8.10;;;;;;;;;;5095693;28;20443;-65
2023/08/27 11:42:51;;;;;;;9.47;8.63;;;;;;;;;;5095567;28;20533;-65
2023/08/27 11:45:18;;;;;;;8.80;7.97;;;;;;;;;;5095299;28;20435;-65
2023/08/27 11:47:45;;;;;;;8.37;7.60;;;;;;;;;;5095031;28;20501;-65
2023/08/27 11:50:13;;;;;;;8.30;7.60;;;;;;;;;;5095788;28;20483;-65
2023/08/27 11:52:41;;;;;;;9.00;8.20;;;;;;;;;;5094640;28;20533;-65
2023/08/27 11:55:08;;;;;;;8.70;8.00;;;;;;;;;;5095361;28;20561;-65
2023/08/27 11:57:37;;;;;;;9.53;8.27;;;;;;;;;;5094970;28;20466;-65
2023/08/27 12:00:11;;;;;;;7.70;7.10;;;;;;;;;;5094810;28;20515;-65
2023/08/27 12:02:39;;;;;;;8.27;7.50;;;;;;;;;;5095016;28;20430;-66
2023/08/27 12:05:07;;;;;;;8.00;7.30;;;;;;;;;;5094938;28;20457;-65
2023/08/27 12:07:35;;;;;;;8.73;6.93;;;;;;;;;;5094872;28;20478;-66
2023/08/27 12:10:07;;;;;;;7.20;6.70;;;;;;;;;;5094644;28;20958;-65
2023/08/27 12:12:34;;;;;;;9.30;7.00;;;;;;;;;;5095077;28;20909;-66
2023/08/27 12:15:03;;;;;;;7.27;6.77;;;;;;;;;;5094967;28;20798;-65
2023/08/27 12:17:36;;;;;;;6.53;6.03;;;;;;;;;;5094681;28;20465;-65
2023/08/27 12:20:05;;;;;;;7.37;6.13;;;;;;;;;;5094626;28;20432;-65
2023/08/27 12:22:33;;;;;;;6.70;6.20;;;;;;;;;;5094476;28;20439;-65
2023/08/27 12:25:01;;;;;;;6.27;5.67;;;;;;;;;;5094273;28;20909;-65
2023/08/27 12:27:29;;;;;;;8.53;6.37;;;;;;;;;;5094416;28;20474;-65
2023/08/27 12:29:56;;;;;;;7.07;6.10;;;;;;;;;;5094459;28;20976;-65
2023/08/27 12:32:32;;;;;;;7.00;6.40;;;;;;;;;;5094475;28;20487;-65
2023/08/27 12:35:00;;;;;;;6.23;5.63;;;;;;;;;;5094204;28;20431;-65
2023/08/27 12:37:27;;;;;;;5.70;5.20;;;;;;;;;;5094478;28;20450;-65
2023/08/27 12:39:55;;;;;;;5.70;5.20;;;;;;;;;;5094435;28;20436;-65
2023/08/27 12:42:25;;;;;;;5.30;4.90;;;;;;;;;;5094389;28;20434;-65
2023/08/27 12:44:52;;;;;;;7.67;4.83;;;;;;;;;;5094014;28;20526;-65
2023/08/27 12:47:20;;;;;;;8.83;4.87;;;;;;;;;;5094565;28;20503;-65
2023/08/27 12:49:48;;;;;;;5.27;4.77;;;;;;;;;;5093775;28;20528;-65
2023/08/27 12:52:15;;;;;;;7.13;4.20;;;;;;;;;;5093873;28;20971;-65
2023/08/27 12:54:43;;;;;;;5.07;4.67;;;;;;;;;;5094250;28;20485;-65
2023/08/27 12:57:11;;;;;;;4.43;4.03;;;;;;;;;;5094067;28;20475;-65
2023/08/27 12:59:38;;;;;;;4.60;4.20;;;;;;;;;;5093715;28;20937;-65
2023/08/27 13:02:06;;;;;;;4.47;4.10;;;;;;;;;;5093778;28;20483;-66
2023/08/27 13:04:34;;;;;;;4.30;3.90;;;;;;;;;;5094168;28;20448;-66
2023/08/27 13:07:02;;;;;;;5.00;4.20;;;;;;;;;;5093718;28;20484;-65
2023/08/27 13:09:30;;;;;;;6.30;3.50;;;;;;;;;;5094108;28;20472;-64
2023/08/27 13:11:57;;;;;;;4.83;3.40;;;;;;;;;;5093625;28;20985;-65
2023/08/27 13:14:24;;;;;;;3.23;2.93;;;;;;;;;;5093479;28;20482;-66
2023/08/27 13:16:51;;;;;;;4.53;2.90;;;;;;;;;;5093321;28;20436;-65
2023/08/27 13:19:18;;;;;;;4.27;2.97;;;;;;;;;;5093413;28;20441;-65
2023/08/27 13:21:46;;;;;;;3.43;2.60;;;;;;;;;;5093270;28;21018;-65
2023/08/27 13:24:16;;;;;;;3.17;2.87;;;;;;;;;;5093522;28;20471;-65
2023/08/27 13:26:43;;;;;;;2.70;2.50;;;;;;;;;;5093860;28;20825;-65
2023/08/27 13:29:11;;;;;;;4.73;3.50;;;;;;;;;;5093496;28;21013;-66
2023/08/27 13:31:38;;;;;;;3.80;2.53;;;;;;;;;;5094033;28;20435;-65
2023/08/27 13:34:05;;;;;;;3.10;2.23;;;;;;;;;;5093170;28;20985;-66
2023/08/27 13:36:33;;;;;;;3.27;2.30;;;;;;;;;;5093643;28;20431;-66
2023/08/27 13:39:00;;;;;;;2.87;2.40;;;;;;;;;;5093406;28;20982;-67
2023/08/27 13:41:29;;;;;;;5.33;2.00;;;;;;;;;;5093499;28;20474;-67
2023/08/27 13:43:56;;;;;;;5.03;2.90;;;;;;;;;;5092977;28;20431;-67
2023/08/27 13:46:23;;;;;;;6.47;2.40;;;;;;;;;;5093040;28;20929;-65
2023/08/27 13:48:51;;;;;;;2.67;2.47;;;;;;;;;;5093205;28;20448;-68
2023/08/27 13:51:18;;;;;;;2.07;1.97;;;;;;;;;;5093065;28;20953;-65
2023/08/27 13:53:45;;;;;;;9.10;1.47;;;;;;;;;;5092807;28;20468;-64
2023/08/27 13:56:12;;;;;;;1.37;1.27;;;;;;;;;;5092209;28;20788;-63
2023/08/27 13:58:41;;;;;;;6.80;1.53;;;;;;;;;;5093156;28;20444;-65
2023/08/27 14:01:09;;;;;;;1.43;1.20;;;;;;;;;;5092814;28;20440;-64
2023/08/27 14:03:36;;;;;;;5.80;1.70;;;;;;;;;;5093261;28;20428;-69
2023/08/27 14:06:03;;;;;;;2.33;1.80;;;;;;;;;;5092954;28;20489;-67
2023/08/27 14:08:30;;;;;;;3.00;2.17;;;;;;;;;;5093136;28;20465;-67
2023/08/27 14:10:58;;;;;;;1.83;1.73;;;;;;;;;;5092911;28;20442;-66
2023/08/27 14:13:25;;;;;;;3.60;2.10;;;;;;;;;;5092966;28;20528;-66
2023/08/27 14:15:54;;;;;;;2.37;1.77;;;;;;;;;;5093365;28;20443;-66
2023/08/27 14:18:22;;;;;;;3.27;2.03;;;;;;;;;;5093679;28;20447;-65
2023/08/27 14:20:50;;;;;;;5.93;2.00;;;;;;;;;;5093088;28;20445;-65
2023/08/27 14:23:17;;;;;;;6.30;2.03;;;;;;;;;;5093246;28;20439;-66
2023/08/27 14:25:44;;;;;;;5.40;2.00;;;;;;;;;;5093071;28;20540;-66
2023/08/27 14:28:11;;;;;;;2.63;2.40;;;;;;;;;;5089953;28;20557;-65
2023/08/27 14:30:38;;;;;;;2.27;2.07;;;;;;;;;;5095450;28;20443;-65
2023/08/27 14:33:07;;;;;;;2.53;2.20;;;;;;;;;;5096415;28;20448;-65
2023/08/27 14:35:34;;;;;;;2.00;1.90;;;;;;;;;;5096241;28;20537;-65
2023/08/27 14:38:01;;;;;;;8.23;2.70;;;;;;;;;;5096648;28;20863;-66
2023/08/27 14:40:29;;;;;;;3.07;2.30;;;;;;;;;;5096830;28;20445;-66
2023/08/27 14:42:56;;;;;;;5.47;3.30;;;;;;;;;;5096218;28;20525;-66
2023/08/27 14:45:23;;;;;;;8.43;7.40;;;;;;;;;;5096716;28;20511;-65
2023/08/27 14:47:52;;;;;;;4.30;3.80;;;;;;;;;;5095869;28;20510;-66